sensor_id;sensor_type;location;lat;lon;timestamp;pressure;altitude;pressure_sealevel;temperature;humidity
71194;BME280;58903;47.210;8.618;2023-04-10T00:02:10;94589.31;;;27.48;38.83
71194;BME280;58903;47.210;8.618;2023-04-10T00:04:36;94577.50;;;27.48;39.04
71194;BME280;58903;47.210;8.618;2023-04-10T00:07:22;94580.56;;;27.44;39.34
71194;BME280;58903;47.210;8.618;2023-04-10T00:09:49;94579.53;;;27.47;39.32
71194;BME280;58903;47.210;8.618;2023-04-10T00:12:44;94586.56;;;27.48;39.47
71194;BME280;58903;47.210;8.618;2023-04-10T00:15:14;94584.31;;;27.47;39.29
71194;BME280;58903;47.210;8.618;2023-04-10T00:18:16;94575.78;;;27.45;39.10
71194;BME280;58903;47.210;8.618;2023-04-10T00:20:49;94580.56;;;27.44;39.32
71194;BME280;58903;47.210;8.618;2023-04-10T00:23:26;94572.28;;;27.44;39.12
71194;BME280;58903;47.210;8.618;2023-04-10T00:26:30;94576.53;;;27.45;39.27
71194;BME280;58903;47.210;8.618;2023-04-10T00:29:15;94571.00;;;27.45;38.62
71194;BME280;58903;47.210;8.618;2023-04-10T00:32:02;94569.53;;;27.44;39.44
71194;BME280;58903;47.210;8.618;2023-04-10T00:34:56;94573.00;;;27.45;39.33
71194;BME280;58903;47.210;8.618;2023-04-10T00:37:44;94571.53;;;27.44;39.34
71194;BME280;58903;47.210;8.618;2023-04-10T00:40:11;94574.59;;;27.40;38.99
71194;BME280;58903;47.210;8.618;2023-04-10T00:43:13;94568.53;;;27.42;39.32
71194;BME280;58903;47.210;8.618;2023-04-10T00:46:03;94570.56;;;27.41;39.21
71194;BME280;58903;47.210;8.618;2023-04-10T00:48:36;94573.84;;;27.40;39.28
71194;BME280;58903;47.210;8.618;2023-04-10T00:51:16;94567.56;;;27.39;39.34
71194;BME280;58903;47.210;8.618;2023-04-10T00:53:49;94567.56;;;27.39;39.29
71194;BME280;58903;47.210;8.618;2023-04-10T00:56:17;94559.28;;;27.39;39.41
71194;BME280;58903;47.210;8.618;2023-04-10T00:58:54;94562.03;;;27.39;39.18
71194;BME280;58903;47.210;8.618;2023-04-10T01:01:30;94563.28;;;27.38;39.60
71194;BME280;58903;47.210;8.618;2023-04-10T01:04:31;94577.09;;;27.38;39.41
71194;BME280;58903;47.210;8.618;2023-04-10T01:12:53;94567.88;;;27.36;39.64
71194;BME280;58903;47.210;8.618;2023-04-10T01:15:52;94578.38;;;27.37;39.15
71194;BME280;58903;47.210;8.618;2023-04-10T01:21:13;94580.13;;;27.35;39.53
71194;BME280;58903;47.210;8.618;2023-04-10T01:24:17;94574.13;;;27.36;39.36
71194;BME280;58903;47.210;8.618;2023-04-10T01:30:27;94564.09;;;27.33;39.49
71194;BME280;58903;47.210;8.618;2023-04-10T01:33:17;94560.88;;;27.29;39.19
71194;BME280;58903;47.210;8.618;2023-04-10T01:36:02;94558.13;;;27.29;39.16
71194;BME280;58903;47.210;8.618;2023-04-10T01:38:35;94569.16;;;27.29;39.40
71194;BME280;58903;47.210;8.618;2023-04-10T01:41:07;94574.69;;;27.29;39.32
71194;BME280;58903;47.210;8.618;2023-04-10T01:43:59;94573.16;;;27.28;39.28
71194;BME280;58903;47.210;8.618;2023-04-10T01:46:32;94566.16;;;27.27;39.19
71194;BME280;58903;47.210;8.618;2023-04-10T01:49:16;94566.66;;;27.26;39.38
71194;BME280;58903;47.210;8.618;2023-04-10T01:51:59;94568.19;;;27.27;39.31
71194;BME280;58903;47.210;8.618;2023-04-10T01:54:27;94569.44;;;27.26;39.04
71194;BME280;58903;47.210;8.618;2023-04-10T01:56:55;94570.19;;;27.26;39.57
71194;BME280;58903;47.210;8.618;2023-04-10T01:59:32;94567.94;;;27.25;39.50
71194;BME280;58903;47.210;8.618;2023-04-10T02:02:00;94576.22;;;27.25;39.42
71194;BME280;58903;47.210;8.618;2023-04-10T02:04:44;94580.78;;;27.22;39.18
71194;BME280;58903;47.210;8.618;2023-04-10T02:07:34;94570.97;;;27.21;39.71
71194;BME280;58903;47.210;8.618;2023-04-10T02:13:14;94575.25;;;27.22;39.46
71194;BME280;58903;47.210;8.618;2023-04-10T02:15:59;94569.50;;;27.20;39.13
71194;BME280;58903;47.210;8.618;2023-04-10T02:18:48;94567.97;;;27.19;39.59
71194;BME280;58903;47.210;8.618;2023-04-10T02:21:41;94556.19;;;27.19;39.48
71194;BME280;58903;47.210;8.618;2023-04-10T02:24:35;94563.75;;;27.18;39.11
71194;BME280;58903;47.210;8.618;2023-04-10T02:27:13;94558.00;;;27.16;38.98
71194;BME280;58903;47.210;8.618;2023-04-10T02:29:59;94563.50;;;27.16;39.32
71194;BME280;58903;47.210;8.618;2023-04-10T02:32:41;94567.97;;;27.19;39.38
71194;BME280;58903;47.210;8.618;2023-04-10T02:35:08;94559.69;;;27.19;39.39
71194;BME280;58903;47.210;8.618;2023-04-10T02:37:34;94567.97;;;27.19;39.24
71194;BME280;58903;47.210;8.618;2023-04-10T02:40:22;94564.47;;;27.19;39.42
71194;BME280;58903;47.210;8.618;2023-04-10T02:42:50;94565.97;;;27.20;39.51
71194;BME280;58903;47.210;8.618;2023-04-10T02:48:29;94571.81;;;27.16;39.64
71194;BME280;58903;47.210;8.618;2023-04-10T02:51:06;94573.28;;;27.17;39.51
71194;BME280;58903;47.210;8.618;2023-04-10T02:53:44;94581.34;;;27.15;39.60
71194;BME280;58903;47.210;8.618;2023-04-10T02:56:11;94575.81;;;27.15;39.88
71194;BME280;58903;47.210;8.618;2023-04-10T02:58:56;94576.56;;;27.16;39.43
71194;BME280;58903;47.210;8.618;2023-04-10T03:01:27;94586.09;;;27.15;39.54
71194;BME280;58903;47.210;8.618;2023-04-10T03:04:12;94583.13;;;27.13;39.07
71194;BME280;58903;47.210;8.618;2023-04-10T03:06:44;94575.34;;;27.11;38.99
71194;BME280;58903;47.210;8.618;2023-04-10T03:09:36;94588.13;;;27.14;39.02
71194;BME280;58903;47.210;8.618;2023-04-10T03:12:36;94581.34;;;27.15;39.02
71194;BME280;58903;47.210;8.618;2023-04-10T03:15:03;94581.84;;;27.14;39.36
71194;BME280;58903;47.210;8.618;2023-04-10T03:17:38;94579.84;;;27.14;39.85
71194;BME280;58903;47.210;8.618;2023-04-10T03:20:15;94589.63;;;27.15;39.77
71194;BME280;58903;47.210;8.618;2023-04-10T03:22:41;94582.63;;;27.14;39.53
71194;BME280;58903;47.210;8.618;2023-04-10T03:25:16;94583.63;;;27.11;39.67
71194;BME280;58903;47.210;8.618;2023-04-10T03:27:42;94581.63;;;27.12;39.46
71194;BME280;58903;47.210;8.618;2023-04-10T03:30:32;94583.13;;;27.13;39.37
71194;BME280;58903;47.210;8.618;2023-04-10T03:33:17;94582.34;;;27.12;39.26
71194;BME280;58903;47.210;8.618;2023-04-10T03:36:03;94582.34;;;27.12;39.38
71194;BME280;58903;47.210;8.618;2023-04-10T03:38:41;94580.88;;;27.11;39.08
71194;BME280;58903;47.210;8.618;2023-04-10T03:41:38;94574.59;;;27.11;39.36
71194;BME280;58903;47.210;8.618;2023-04-10T03:44:09;94575.13;;;27.09;39.68
71194;BME280;58903;47.210;8.618;2023-04-10T03:46:54;94570.84;;;27.08;39.42
71194;BME280;58903;47.210;8.618;2023-04-10T03:49:22;94569.38;;;27.07;39.37
71194;BME280;58903;47.210;8.618;2023-04-10T03:51:53;94574.88;;;27.07;39.49
71194;BME280;58903;47.210;8.618;2023-04-10T03:54:19;94574.88;;;27.07;39.55
71194;BME280;58903;47.210;8.618;2023-04-10T03:56:47;94569.38;;;27.07;39.46
71194;BME280;58903;47.210;8.618;2023-04-10T03:59:13;94560.84;;;27.05;39.13
71194;BME280;58903;47.210;8.618;2023-04-10T04:01:39;94564.06;;;27.09;39.37
71194;BME280;58903;47.210;8.618;2023-04-10T04:04:05;94559.09;;;27.08;39.38
71194;BME280;58903;47.210;8.618;2023-04-10T04:06:31;94560.34;;;27.07;39.08
71194;BME280;58903;47.210;8.618;2023-04-10T04:08:59;94560.34;;;27.07;39.07
71194;BME280;58903;47.210;8.618;2023-04-10T04:11:25;94551.06;;;27.04;39.62
71194;BME280;58903;47.210;8.618;2023-04-10T04:13:52;94555.34;;;27.05;39.32
71194;BME280;58903;47.210;8.618;2023-04-10T04:16:18;94560.63;;;27.03;39.36
71194;BME280;58903;47.210;8.618;2023-04-10T04:18:46;94553.81;;;27.04;39.46
71194;BME280;58903;47.210;8.618;2023-04-10T04:21:12;94565.84;;;27.07;39.23
71194;BME280;58903;47.210;8.618;2023-04-10T04:23:42;94557.34;;;27.05;39.40
71194;BME280;58903;47.210;8.618;2023-04-10T04:26:23;94562.34;;;27.06;39.78
71194;BME280;58903;47.210;8.618;2023-04-10T04:28:50;94557.34;;;27.05;39.42
71194;BME280;58903;47.210;8.618;2023-04-10T04:31:16;94561.59;;;27.06;39.40
71194;BME280;58903;47.210;8.618;2023-04-10T04:33:44;94564.88;;;27.04;39.56
71194;BME280;58903;47.210;8.618;2023-04-10T04:36:12;94560.84;;;27.05;39.39
71194;BME280;58903;47.210;8.618;2023-04-10T04:38:39;94562.88;;;27.05;39.62
71194;BME280;58903;47.210;8.618;2023-04-10T04:41:13;94555.84;;;27.04;39.66
71194;BME280;58903;47.210;8.618;2023-04-10T04:43:41;94558.59;;;27.04;39.43
71194;BME280;58903;47.210;8.618;2023-04-10T04:46:07;94553.06;;;27.04;39.49
71194;BME280;58903;47.210;8.618;2023-04-10T04:48:38;94562.41;;;27.01;39.64
71194;BME280;58903;47.210;8.618;2023-04-10T04:51:07;94564.47;;;26.95;39.72
71194;BME280;58903;47.210;8.618;2023-04-10T04:56:44;94564.94;;;26.99;39.84
71194;BME280;58903;47.210;8.618;2023-04-10T04:59:09;94572.47;;;26.98;39.79
71194;BME280;58903;47.210;8.618;2023-04-10T05:01:35;94571.44;;;27.01;39.57
71194;BME280;58903;47.210;8.618;2023-04-10T05:04:01;94574.44;;;27.03;39.95
71194;BME280;58903;47.210;8.618;2023-04-10T05:06:28;94575.44;;;27.00;39.62
71194;BME280;58903;47.210;8.618;2023-04-10T05:08:59;94575.44;;;27.00;39.80
71194;BME280;58903;47.210;8.618;2023-04-10T05:11:27;94569.63;;;27.04;39.26
71194;BME280;58903;47.210;8.618;2023-04-10T05:13:56;94567.41;;;27.02;39.59
71194;BME280;58903;47.210;8.618;2023-04-10T05:16:21;94573.16;;;27.04;39.83
71194;BME280;58903;47.210;8.618;2023-04-10T05:18:50;94577.44;;;27.05;39.70
71194;BME280;58903;47.210;8.618;2023-04-10T05:21:16;94571.16;;;27.05;39.57
71194;BME280;58903;47.210;8.618;2023-04-10T05:23:41;94569.63;;;27.04;39.98
71194;BME280;58903;47.210;8.618;2023-04-10T05:26:10;94573.91;;;27.05;39.65
71194;BME280;58903;47.210;8.618;2023-04-10T05:28:36;94574.66;;;27.05;39.83
71194;BME280;58903;47.210;8.618;2023-04-10T05:31:02;94572.38;;;27.09;40.11
71194;BME280;58903;47.210;8.618;2023-04-10T05:33:31;94573.84;;;27.10;39.72
71194;BME280;58903;47.210;8.618;2023-04-10T05:35:57;94570.13;;;27.08;39.47
71194;BME280;58903;47.210;8.618;2023-04-10T05:38:25;94566.59;;;27.07;39.53
71194;BME280;58903;47.210;8.618;2023-04-10T05:41:07;94577.44;;;27.05;39.79
71194;BME280;58903;47.210;8.618;2023-04-10T05:43:33;94576.16;;;27.06;39.27
71194;BME280;58903;47.210;8.618;2023-04-10T05:46:03;94563.63;;;27.05;39.58
71194;BME280;58903;47.210;8.618;2023-04-10T05:48:34;94573.38;;;27.06;40.08
71194;BME280;58903;47.210;8.618;2023-04-10T05:51:36;94581.16;;;27.08;39.60
71194;BME280;58903;47.210;8.618;2023-04-10T05:54:04;94583.41;;;27.09;39.56
71194;BME280;58903;47.210;8.618;2023-04-10T05:56:32;94590.63;;;27.12;39.79
71194;BME280;58903;47.210;8.618;2023-04-10T05:59:00;94574.34;;;27.14;39.25
71194;BME280;58903;47.210;8.618;2023-04-10T06:01:27;94585.59;;;27.16;39.20
71194;BME280;58903;47.210;8.618;2023-04-10T06:03:53;94583.06;;;27.18;39.42
71194;BME280;58903;47.210;8.618;2023-04-10T06:06:19;94594.34;;;27.20;39.13
71194;BME280;58903;47.210;8.618;2023-04-10T06:08:49;94587.09;;;27.17;39.56
71194;BME280;58903;47.210;8.618;2023-04-10T06:11:17;94585.84;;;27.18;39.32
71194;BME280;58903;47.210;8.618;2023-04-10T06:13:43;94577.31;;;27.16;39.48
71194;BME280;58903;47.210;8.618;2023-04-10T06:16:12;94581.03;;;27.19;40.24
71194;BME280;58903;47.210;8.618;2023-04-10T06:18:53;94589.06;;;27.22;39.26
71194;BME280;58903;47.210;8.618;2023-04-10T06:21:28;94591.06;;;27.22;39.63
71194;BME280;58903;47.210;8.618;2023-04-10T06:24:05;94587.31;;;27.19;39.83
71194;BME280;58903;47.210;8.618;2023-04-10T06:27:00;94590.59;;;27.18;39.63
71194;BME280;58903;47.210;8.618;2023-04-10T06:29:59;94581.78;;;27.19;39.77
71194;BME280;58903;47.210;8.618;2023-04-10T06:32:55;94583.31;;;27.20;39.73
71194;BME280;58903;47.210;8.618;2023-04-10T06:35:26;94578.81;;;27.17;39.36
71194;BME280;58903;47.210;8.618;2023-04-10T06:37:52;94572.38;;;27.09;39.80
71194;BME280;58903;47.210;8.618;2023-04-10T06:40:31;94582.66;;;27.09;40.38
71194;BME280;58903;47.210;8.618;2023-04-10T06:43:10;94587.66;;;27.10;39.66
71194;BME280;58903;47.210;8.618;2023-04-10T06:45:55;94582.34;;;27.12;39.61
71194;BME280;58903;47.210;8.618;2023-04-10T06:48:22;94578.91;;;27.06;34.21
71194;BME280;58903;47.210;8.618;2023-04-10T06:51:21;94584.88;;;26.86;31.84
71194;BME280;58903;47.210;8.618;2023-04-10T06:53:49;94587.19;;;26.76;32.24
71194;BME280;58903;47.210;8.618;2023-04-10T06:56:25;94580.19;;;26.70;30.60
71194;BME280;58903;47.210;8.618;2023-04-10T06:58:58;94580.94;;;26.70;30.96
71194;BME280;58903;47.210;8.618;2023-04-10T07:02:03;94585.94;;;26.72;30.70
71194;BME280;58903;47.210;8.618;2023-04-10T07:04:39;94591.72;;;26.74;31.43
71194;BME280;58903;47.210;8.618;2023-04-10T07:07:20;94581.44;;;26.74;31.91
71194;BME280;58903;47.210;8.618;2023-04-10T07:10:00;94577.16;;;26.79;32.15
71194;BME280;58903;47.210;8.618;2023-04-10T07:12:34;94574.09;;;26.82;32.61
71194;BME280;58903;47.210;8.618;2023-04-10T07:15:10;94576.34;;;26.84;33.17
71194;BME280;58903;47.210;8.618;2023-04-10T07:17:37;94567.03;;;26.87;33.48
71194;BME280;58903;47.210;8.618;2023-04-10T07:20:04;94574.31;;;26.90;33.18
71194;BME280;58903;47.210;8.618;2023-04-10T07:22:39;94566.50;;;26.88;33.52
71194;BME280;58903;47.210;8.618;2023-04-10T07:25:14;94572.00;;;26.94;33.78
71194;BME280;58903;47.210;8.618;2023-04-10T07:27:41;94574.53;;;26.92;33.35
71194;BME280;58903;47.210;8.618;2023-04-10T07:30:17;94570.72;;;26.95;33.65
71194;BME280;58903;47.210;8.618;2023-04-10T07:33:15;94573.47;;;26.95;33.72
71194;BME280;58903;47.210;8.618;2023-04-10T07:36:04;94566.72;;;26.96;33.13
71194;BME280;58903;47.210;8.618;2023-04-10T07:38:35;94570.50;;;26.93;33.26
71194;BME280;58903;47.210;8.618;2023-04-10T07:41:03;94569.72;;;26.92;34.27
71194;BME280;58903;47.210;8.618;2023-04-10T07:43:32;94577.75;;;26.96;33.73
71194;BME280;58903;47.210;8.618;2023-04-10T07:45:58;94575.44;;;27.00;34.70
71194;BME280;58903;47.210;8.618;2023-04-10T07:48:32;94573.94;;;26.99;34.51
71194;BME280;58903;47.210;8.618;2023-04-10T07:51:31;94577.22;;;26.98;34.91
71194;BME280;58903;47.210;8.618;2023-04-10T07:54:02;94586.03;;;26.96;35.27
71194;BME280;58903;47.210;8.618;2023-04-10T07:56:33;94582.50;;;26.96;34.92
71194;BME280;58903;47.210;8.618;2023-04-10T07:59:04;94584.25;;;26.99;35.35
71194;BME280;58903;47.210;8.618;2023-04-10T08:01:41;94579.47;;;26.99;34.60
71194;BME280;58903;47.210;8.618;2023-04-10T08:04:10;94586.78;;;26.97;35.44
71194;BME280;58903;47.210;8.618;2023-04-10T08:06:46;94592.00;;;27.00;35.70
71194;BME280;58903;47.210;8.618;2023-04-10T08:09:12;94591.25;;;27.00;36.36
71194;BME280;58903;47.210;8.618;2023-04-10T08:11:42;94595.06;;;26.97;35.86
71194;BME280;58903;47.210;8.618;2023-04-10T08:14:28;94597.34;;;26.92;35.89
71194;BME280;58903;47.210;8.618;2023-04-10T08:17:03;94596.84;;;26.94;36.13
71194;BME280;58903;47.210;8.618;2023-04-10T08:19:30;94594.84;;;26.95;36.87
71194;BME280;58903;47.210;8.618;2023-04-10T08:22:25;94600.28;;;27.00;36.29
71194;BME280;58903;47.210;8.618;2023-04-10T08:25:28;94595.53;;;27.01;36.32
71194;BME280;58903;47.210;8.618;2023-04-10T08:28:11;94604.56;;;27.01;36.13
71194;BME280;58903;47.210;8.618;2023-04-10T08:31:08;94601.06;;;27.01;35.78
71194;BME280;58903;47.210;8.618;2023-04-10T08:37:27;94601.28;;;27.03;35.76
71194;BME280;58903;47.210;8.618;2023-04-10T08:40:05;94593.75;;;27.03;36.07
71194;BME280;58903;47.210;8.618;2023-04-10T08:42:50;94593.75;;;27.03;35.68
71194;BME280;58903;47.210;8.618;2023-04-10T08:45:17;94588.25;;;27.03;35.26
71194;BME280;58903;47.210;8.618;2023-04-10T08:47:56;94586.97;;;27.04;36.20
71194;BME280;58903;47.210;8.618;2023-04-10T08:50:24;94594.47;;;27.04;35.70
71194;BME280;58903;47.210;8.618;2023-04-10T08:53:12;94589.72;;;27.04;36.08
71194;BME280;58903;47.210;8.618;2023-04-10T08:55:39;94587.72;;;27.05;36.28
71194;BME280;58903;47.210;8.618;2023-04-10T08:58:15;94584.19;;;27.04;36.37
71194;BME280;58903;47.210;8.618;2023-04-10T09:00:41;94594.00;;;27.05;36.74
71194;BME280;58903;47.210;8.618;2023-04-10T09:03:32;94589.94;;;27.06;36.81
71194;BME280;58903;47.210;8.618;2023-04-10T09:06:09;94589.94;;;27.06;37.05
71194;BME280;58903;47.210;8.618;2023-04-10T09:12:07;94592.22;;;27.08;37.29
71194;BME280;58903;47.210;8.618;2023-04-10T09:14:42;94593.16;;;27.10;37.59
71194;BME280;58903;47.210;8.618;2023-04-10T09:17:23;94594.97;;;27.08;37.81
71194;BME280;58903;47.210;8.618;2023-04-10T09:20:00;94579.13;;;27.08;37.15
71194;BME280;58903;47.210;8.618;2023-04-10T09:22:31;94586.63;;;27.13;38.05
71194;BME280;58903;47.210;8.618;2023-04-10T09:28:07;94589.16;;;27.11;37.63
71194;BME280;58903;47.210;8.618;2023-04-10T09:30:48;94588.13;;;27.14;37.93
71194;BME280;58903;47.210;8.618;2023-04-10T09:33:23;94586.41;;;27.11;38.31
71194;BME280;58903;47.210;8.618;2023-04-10T09:35:50;94582.34;;;27.12;38.63
71194;BME280;58903;47.210;8.618;2023-04-10T09:38:27;94581.34;;;27.15;38.44
71194;BME280;58903;47.210;8.618;2023-04-10T09:41:29;94581.56;;;27.17;38.54
71194;BME280;58903;47.210;8.618;2023-04-10T09:44:17;94577.09;;;27.14;38.57
71194;BME280;58903;47.210;8.618;2023-04-10T09:46:45;94581.34;;;27.15;38.81
71194;BME280;58903;47.210;8.618;2023-04-10T09:49:12;94585.09;;;27.18;38.97
71194;BME280;58903;47.210;8.618;2023-04-10T09:51:58;94590.06;;;27.19;38.47
71194;BME280;58903;47.210;8.618;2023-04-10T09:54:50;94587.31;;;27.19;38.71
71194;BME280;58903;47.210;8.618;2023-04-10T09:57:20;94584.31;;;27.17;38.59
71194;BME280;58903;47.210;8.618;2023-04-10T10:00:03;94568.50;;;27.18;38.57
71194;BME280;58903;47.210;8.618;2023-04-10T10:02:41;94563.75;;;27.18;38.60
71194;BME280;58903;47.210;8.618;2023-04-10T10:05:22;94564.19;;;27.22;38.75
71194;BME280;58903;47.210;8.618;2023-04-10T10:08:02;94568.75;;;27.20;39.11
71194;BME280;58903;47.210;8.618;2023-04-10T10:10:37;94567.72;;;27.23;38.78
71194;BME280;58903;47.210;8.618;2023-04-10T10:19:40;94547.34;;;27.26;39.27
71194;BME280;58903;47.210;8.618;2023-04-10T10:22:24;94545.09;;;27.24;39.15
71194;BME280;58903;47.210;8.618;2023-04-10T10:24:55;94537.03;;;27.26;39.04
71194;BME280;58903;47.210;8.618;2023-04-10T10:27:35;94539.06;;;27.26;39.15
71194;BME280;58903;47.210;8.618;2023-04-10T10:30:11;94534.06;;;27.24;39.38
71194;BME280;58903;47.210;8.618;2023-04-10T10:33:10;94528.75;;;27.26;39.35
71194;BME280;58903;47.210;8.618;2023-04-10T10:36:06;94525.69;;;27.30;38.78
71194;BME280;58903;47.210;8.618;2023-04-10T10:41:55;94536.03;;;27.29;39.04
71194;BME280;58903;47.210;8.618;2023-04-10T10:50:58;94523.91;;;27.32;38.92
71194;BME280;58903;47.210;8.618;2023-04-10T10:53:44;94515.84;;;27.34;38.70
71194;BME280;58903;47.210;8.618;2023-04-10T10:59:02;94498.56;;;27.34;38.57
71194;BME280;58903;47.210;8.618;2023-04-10T11:04:51;94491.00;;;27.34;38.75
71194;BME280;58903;47.210;8.618;2023-04-10T11:07:21;94487.22;;;27.37;38.60
71194;BME280;58903;47.210;8.618;2023-04-10T11:10:07;94492.47;;;27.41;38.30
71194;BME280;58903;47.210;8.618;2023-04-10T11:13:15;94496.41;;;27.45;37.91
71194;BME280;58903;47.210;8.618;2023-04-10T11:16:12;94488.44;;;27.42;37.15
71194;BME280;58903;47.210;8.618;2023-04-10T11:19:15;94496.19;;;27.43;36.71
71194;BME280;58903;47.210;8.618;2023-04-10T11:22:10;94494.19;;;27.44;36.52
71194;BME280;58903;47.210;8.618;2023-04-10T11:24:55;94491.97;;;27.42;36.78
71194;BME280;58903;47.210;8.618;2023-04-10T11:30:45;94492.91;;;27.45;36.69
71194;BME280;58903;47.210;8.618;2023-04-10T11:33:16;94488.13;;;27.45;36.63
71194;BME280;58903;47.210;8.618;2023-04-10T11:36:02;94495.16;;;27.46;36.87
71194;BME280;58903;47.210;8.618;2023-04-10T11:38:33;94487.63;;;27.47;36.82
71194;BME280;58903;47.210;8.618;2023-04-10T11:44:33;94488.81;;;27.51;37.15
71194;BME280;58903;47.210;8.618;2023-04-10T11:47:05;94485.31;;;27.51;36.69
71194;BME280;58903;47.210;8.618;2023-04-10T11:49:52;94482.03;;;27.52;36.87
71194;BME280;58903;47.210;8.618;2023-04-10T11:52:31;94480.75;;;27.53;36.52
71194;BME280;58903;47.210;8.618;2023-04-10T11:54:58;94484.03;;;27.52;36.07
71194;BME280;58903;47.210;8.618;2023-04-10T11:57:33;94482.78;;;27.53;36.37
71194;BME280;58903;47.210;8.618;2023-04-10T12:00:02;94477.97;;;27.53;35.67
71194;BME280;58903;47.210;8.618;2023-04-10T12:02:49;94476.94;;;27.56;35.15
71194;BME280;58903;47.210;8.618;2023-04-10T12:05:16;94478.44;;;27.57;35.37
71194;BME280;58903;47.210;8.618;2023-04-10T12:07:53;94478.69;;;27.59;35.17
71194;BME280;58903;47.210;8.618;2023-04-10T12:10:20;94474.63;;;27.60;35.78
71194;BME280;58903;47.210;8.618;2023-04-10T12:12:47;94473.38;;;27.61;34.88
71194;BME280;58903;47.210;8.618;2023-04-10T12:15:27;94470.63;;;27.61;35.00
71194;BME280;58903;47.210;8.618;2023-04-10T12:17:57;94462.53;;;27.63;34.37
71194;BME280;58903;47.210;8.618;2023-04-10T12:20:37;94460.81;;;27.60;34.70
71194;BME280;58903;47.210;8.618;2023-04-10T12:23:04;94466.56;;;27.62;34.41
71194;BME280;58903;47.210;8.618;2023-04-10T12:25:31;94460.53;;;27.64;34.20
71194;BME280;58903;47.210;8.618;2023-04-10T12:27:59;94462.00;;;27.65;34.34
71194;BME280;58903;47.210;8.618;2023-04-10T12:30:26;94452.75;;;27.62;34.06
71194;BME280;58903;47.210;8.618;2023-04-10T12:32:53;94455.72;;;27.64;33.64
71194;BME280;58903;47.210;8.618;2023-04-10T12:35:19;94450.69;;;27.69;33.16
71194;BME280;58903;47.210;8.618;2023-04-10T12:37:52;94451.41;;;27.69;33.40
71194;BME280;58903;47.210;8.618;2023-04-10T12:40:26;94450.69;;;27.69;33.52
71194;BME280;58903;47.210;8.618;2023-04-10T12:42:53;94449.16;;;27.68;32.97
71194;BME280;58903;47.210;8.618;2023-04-10T12:45:41;94456.66;;;27.73;33.41
71194;BME280;58903;47.210;8.618;2023-04-10T12:48:32;94443.34;;;27.71;31.54
71194;BME280;58903;47.210;8.618;2023-04-10T12:51:05;94445.38;;;27.71;31.54
71194;BME280;58903;47.210;8.618;2023-04-10T12:53:41;94443.66;;;27.68;32.05
71194;BME280;58903;47.210;8.618;2023-04-10T12:56:16;94445.16;;;27.69;31.90
71194;BME280;58903;47.210;8.618;2023-04-10T12:58:46;94430.59;;;27.68;31.20
71194;BME280;58903;47.210;8.618;2023-04-10T13:01:42;94435.56;;;27.70;31.91
71194;BME280;58903;47.210;8.618;2023-04-10T13:04:37;94431.56;;;27.71;31.23
71194;BME280;58903;47.210;8.618;2023-04-10T13:07:06;94415.69;;;27.71;31.16
71194;BME280;58903;47.210;8.618;2023-04-10T13:09:59;94420.72;;;27.73;31.18
71194;BME280;58903;47.210;8.618;2023-04-10T13:12:36;94421.97;;;27.72;31.07
71194;BME280;58903;47.210;8.618;2023-04-10T13:15:04;94417.72;;;27.71;31.41
71194;BME280;58903;47.210;8.618;2023-04-10T13:17:42;94424.53;;;27.70;31.61
71194;BME280;58903;47.210;8.618;2023-04-10T13:20:28;94419.00;;;27.70;31.78
71194;BME280;58903;47.210;8.618;2023-04-10T13:26:22;94417.97;;;27.73;31.81
71194;BME280;58903;47.210;8.618;2023-04-10T13:28:53;94416.88;;;27.76;31.62
71194;BME280;58903;47.210;8.618;2023-04-10T13:31:54;94415.41;;;27.75;31.82
71194;BME280;58903;47.210;8.618;2023-04-10T13:34:34;94415.63;;;27.77;32.10
71194;BME280;58903;47.210;8.618;2023-04-10T13:37:25;94411.34;;;27.76;31.82
71194;BME280;58903;47.210;8.618;2023-04-10T13:40:00;94407.34;;;27.77;32.10
71194;BME280;58903;47.210;8.618;2023-04-10T13:42:26;94401.06;;;27.76;31.18
71194;BME280;58903;47.210;8.618;2023-04-10T13:44:54;94402.03;;;27.79;31.92
71194;BME280;58903;47.210;8.618;2023-04-10T13:47:22;94407.03;;;27.80;31.49
71194;BME280;58903;47.210;8.618;2023-04-10T13:50:21;94395.97;;;27.80;31.42
71194;BME280;58903;47.210;8.618;2023-04-10T13:52:49;94390.44;;;27.80;31.54
71194;BME280;58903;47.210;8.618;2023-04-10T13:55:16;94397.47;;;27.81;30.41
71194;BME280;58903;47.210;8.618;2023-04-10T13:57:44;94398.94;;;27.82;31.23
71194;BME280;58903;47.210;8.618;2023-04-10T14:00:13;94391.19;;;27.81;29.88
71194;BME280;58903;47.210;8.618;2023-04-10T14:02:39;94397.47;;;27.81;30.79
71194;BME280;58903;47.210;8.618;2023-04-10T14:05:05;94392.91;;;27.84;30.52
71194;BME280;58903;47.210;8.618;2023-04-10T14:07:31;94397.16;;;27.85;29.55
71194;BME280;58903;47.210;8.618;2023-04-10T14:09:59;94391.84;;;27.87;29.41
71194;BME280;58903;47.210;8.618;2023-04-10T14:12:27;94393.13;;;27.86;29.21
71194;BME280;58903;47.210;8.618;2023-04-10T14:14:53;94388.03;;;27.90;29.13
71194;BME280;58903;47.210;8.618;2023-04-10T14:17:21;94389.00;;;27.92;28.87
71194;BME280;58903;47.210;8.618;2023-04-10T14:19:49;94385.50;;;27.92;29.09
71194;BME280;58903;47.210;8.618;2023-04-10T14:22:19;94390.81;;;27.90;29.19
71194;BME280;58903;47.210;8.618;2023-04-10T14:24:47;94391.78;;;27.92;28.63
71194;BME280;58903;47.210;8.618;2023-04-10T14:27:14;94396.56;;;27.92;29.08
71194;BME280;58903;47.210;8.618;2023-04-10T14:29:41;94384.75;;;27.91;28.92
71194;BME280;58903;47.210;8.618;2023-04-10T14:32:08;94383.06;;;27.88;29.02
71194;BME280;58903;47.210;8.618;2023-04-10T14:34:34;94386.53;;;27.89;29.41
71194;BME280;58903;47.210;8.618;2023-04-10T14:37:02;94382.53;;;27.90;29.38
71194;BME280;58903;47.210;8.618;2023-04-10T14:39:28;94387.81;;;27.88;29.90
71194;BME280;58903;47.210;8.618;2023-04-10T14:41:55;94386.75;;;27.91;28.99
71194;BME280;58903;47.210;8.618;2023-04-10T14:44:25;94384.75;;;27.91;29.01
71194;BME280;58903;47.210;8.618;2023-04-10T14:46:54;94371.69;;;27.92;29.32
71194;BME280;58903;47.210;8.618;2023-04-10T14:49:22;94375.63;;;27.96;29.15
71194;BME280;58903;47.210;8.618;2023-04-10T14:51:48;94377.13;;;27.97;29.71